sensor_id;sensor_type;location;lat;lon;timestamp;P1;durP1;ratioP1;P2;durP2;ratioP2
63567;SDS011;49715;42.386;20.434;2023-02-28T00:00:00;29.07;;;16.90;;
63567;SDS011;49715;42.386;20.434;2023-02-28T00:02:36;28.83;;;16.42;;
63567;SDS011;49715;42.386;20.434;2023-02-28T00:05:07;26.45;;;17.17;;
63567;SDS011;49715;42.386;20.434;2023-02-28T00:07:35;30.05;;;17.88;;
63567;SDS011;49715;42.386;20.434;2023-02-28T00:10:05;29.90;;;17.05;;
63567;SDS011;49715;42.386;20.434;2023-02-28T00:12:39;27.00;;;16.17;;
63567;SDS011;49715;42.386;20.434;2023-02-28T00:15:08;28.80;;;17.92;;
63567;SDS011;49715;42.386;20.434;2023-02-28T00:17:42;27.42;;;16.00;;
63567;SDS011;49715;42.386;20.434;2023-02-28T00:20:11;28.77;;;16.90;;
63567;SDS011;49715;42.386;20.434;2023-02-28T00:22:43;24.50;;;15.23;;
63567;SDS011;49715;42.386;20.434;2023-02-28T00:25:14;27.98;;;17.55;;
63567;SDS011;49715;42.386;20.434;2023-02-28T00:27:43;26.90;;;16.77;;
63567;SDS011;49715;42.386;20.434;2023-02-28T00:30:12;27.33;;;16.98;;
63567;SDS011;49715;42.386;20.434;2023-02-28T00:32:45;27.13;;;16.02;;
63567;SDS011;49715;42.386;20.434;2023-02-28T00:35:19;26.50;;;16.80;;
63567;SDS011;49715;42.386;20.434;2023-02-28T00:37:51;26.50;;;15.65;;
63567;SDS011;49715;42.386;20.434;2023-02-28T00:42:58;28.52;;;16.70;;
63567;SDS011;49715;42.386;20.434;2023-02-28T00:45:26;31.85;;;17.33;;
63567;SDS011;49715;42.386;20.434;2023-02-28T00:47:54;29.08;;;16.70;;
63567;SDS011;49715;42.386;20.434;2023-02-28T00:50:22;25.92;;;16.02;;
63567;SDS011;49715;42.386;20.434;2023-02-28T00:52:50;27.05;;;15.52;;
63567;SDS011;49715;42.386;20.434;2023-02-28T00:55:20;27.98;;;16.73;;
63567;SDS011;49715;42.386;20.434;2023-02-28T00:57:49;37.05;;;16.77;;
63567;SDS011;49715;42.386;20.434;2023-02-28T01:00:19;30.40;;;16.38;;
63567;SDS011;49715;42.386;20.434;2023-02-28T01:02:46;26.98;;;16.38;;
63567;SDS011;49715;42.386;20.434;2023-02-28T01:05:14;27.48;;;16.85;;
63567;SDS011;49715;42.386;20.434;2023-02-28T01:07:40;24.97;;;16.00;;
63567;SDS011;49715;42.386;20.434;2023-02-28T01:10:07;25.42;;;15.88;;
63567;SDS011;49715;42.386;20.434;2023-02-28T01:12:34;26.52;;;15.73;;
63567;SDS011;49715;42.386;20.434;2023-02-28T01:15:01;31.00;;;17.23;;
63567;SDS011;49715;42.386;20.434;2023-02-28T01:17:27;31.50;;;17.07;;
63567;SDS011;49715;42.386;20.434;2023-02-28T01:19:54;27.87;;;15.70;;
63567;SDS011;49715;42.386;20.434;2023-02-28T01:22:24;26.77;;;16.85;;
63567;SDS011;49715;42.386;20.434;2023-02-28T01:24:51;31.38;;;17.77;;
63567;SDS011;49715;42.386;20.434;2023-02-28T01:27:17;27.87;;;17.23;;
63567;SDS011;49715;42.386;20.434;2023-02-28T01:29:44;28.03;;;17.10;;
63567;SDS011;49715;42.386;20.434;2023-02-28T01:32:10;28.10;;;17.27;;
63567;SDS011;49715;42.386;20.434;2023-02-28T01:34:37;27.50;;;16.37;;
63567;SDS011;49715;42.386;20.434;2023-02-28T01:37:03;28.48;;;16.98;;
63567;SDS011;49715;42.386;20.434;2023-02-28T01:39:30;34.37;;;17.83;;
63567;SDS011;49715;42.386;20.434;2023-02-28T01:41:56;31.70;;;18.47;;
63567;SDS011;49715;42.386;20.434;2023-02-28T01:47:22;30.38;;;17.83;;
63567;SDS011;49715;42.386;20.434;2023-02-28T01:49:51;30.60;;;16.98;;
63567;SDS011;49715;42.386;20.434;2023-02-28T01:52:18;29.13;;;17.10;;
63567;SDS011;49715;42.386;20.434;2023-02-28T01:57:18;28.48;;;15.75;;
63567;SDS011;49715;42.386;20.434;2023-02-28T02:00:00;30.58;;;16.17;;
63567;SDS011;49715;42.386;20.434;2023-02-28T02:02:38;26.63;;;15.50;;
63567;SDS011;49715;42.386;20.434;2023-02-28T02:05:10;26.55;;;16.05;;
63567;SDS011;49715;42.386;20.434;2023-02-28T02:07:48;30.90;;;16.48;;
63567;SDS011;49715;42.386;20.434;2023-02-28T02:10:20;29.45;;;16.83;;
63567;SDS011;49715;42.386;20.434;2023-02-28T02:15:39;28.15;;;16.17;;
63567;SDS011;49715;42.386;20.434;2023-02-28T02:32:48;24.50;;;15.18;;
63567;SDS011;49715;42.386;20.434;2023-02-28T02:38:24;31.23;;;16.23;;
63567;SDS011;49715;42.386;20.434;2023-02-28T02:43:52;25.38;;;15.57;;
63567;SDS011;49715;42.386;20.434;2023-02-28T02:46:33;26.88;;;16.05;;
63567;SDS011;49715;42.386;20.434;2023-02-28T02:49:05;27.98;;;16.10;;
63567;SDS011;49715;42.386;20.434;2023-02-28T02:51:35;27.10;;;15.07;;
63567;SDS011;49715;42.386;20.434;2023-02-28T02:54:21;28.23;;;15.55;;
63567;SDS011;49715;42.386;20.434;2023-02-28T02:56:55;29.25;;;15.60;;
63567;SDS011;49715;42.386;20.434;2023-02-28T02:59:25;32.08;;;16.15;;
63567;SDS011;49715;42.386;20.434;2023-02-28T03:01:55;30.10;;;16.05;;
63567;SDS011;49715;42.386;20.434;2023-02-28T03:04:27;27.05;;;16.10;;
63567;SDS011;49715;42.386;20.434;2023-02-28T03:06:59;29.70;;;15.52;;
63567;SDS011;49715;42.386;20.434;2023-02-28T03:09:26;25.00;;;15.40;;
63567;SDS011;49715;42.386;20.434;2023-02-28T03:11:53;26.75;;;14.68;;
63567;SDS011;49715;42.386;20.434;2023-02-28T03:14:32;24.83;;;14.75;;
63567;SDS011;49715;42.386;20.434;2023-02-28T03:28:44;26.85;;;16.35;;
63567;SDS011;49715;42.386;20.434;2023-02-28T03:31:27;30.38;;;17.23;;
63567;SDS011;49715;42.386;20.434;2023-02-28T03:37:13;83.60;;;34.60;;
63567;SDS011;49715;42.386;20.434;2023-02-28T03:39:45;52.10;;;23.45;;
63567;SDS011;49715;42.386;20.434;2023-02-28T03:42:17;30.98;;;17.45;;
63567;SDS011;49715;42.386;20.434;2023-02-28T03:50:34;33.95;;;17.88;;
63567;SDS011;49715;42.386;20.434;2023-02-28T03:55:35;35.92;;;20.10;;
63567;SDS011;49715;42.386;20.434;2023-02-28T04:01:19;24.73;;;13.75;;
63567;SDS011;49715;42.386;20.434;2023-02-28T04:03:47;24.05;;;13.75;;
63567;SDS011;49715;42.386;20.434;2023-02-28T04:06:19;27.70;;;15.50;;
63567;SDS011;49715;42.386;20.434;2023-02-28T04:08:47;24.70;;;14.45;;
63567;SDS011;49715;42.386;20.434;2023-02-28T04:13:40;24.17;;;13.63;;
63567;SDS011;49715;42.386;20.434;2023-02-28T04:16:07;24.43;;;15.43;;
63567;SDS011;49715;42.386;20.434;2023-02-28T04:18:38;26.20;;;14.88;;
63567;SDS011;49715;42.386;20.434;2023-02-28T04:21:06;26.20;;;14.98;;
63567;SDS011;49715;42.386;20.434;2023-02-28T04:23:33;26.33;;;15.38;;
63567;SDS011;49715;42.386;20.434;2023-02-28T04:25:59;25.40;;;15.83;;
63567;SDS011;49715;42.386;20.434;2023-02-28T04:28:26;28.13;;;16.30;;
63567;SDS011;49715;42.386;20.434;2023-02-28T04:30:56;24.60;;;15.33;;
63567;SDS011;49715;42.386;20.434;2023-02-28T04:33:24;23.13;;;14.60;;
63567;SDS011;49715;42.386;20.434;2023-02-28T04:36:00;27.42;;;15.25;;
63567;SDS011;49715;42.386;20.434;2023-02-28T04:38:35;26.80;;;15.20;;
63567;SDS011;49715;42.386;20.434;2023-02-28T04:41:03;28.13;;;15.93;;
63567;SDS011;49715;42.386;20.434;2023-02-28T04:43:31;29.60;;;16.55;;
63567;SDS011;49715;42.386;20.434;2023-02-28T04:46:04;23.00;;;15.07;;
63567;SDS011;49715;42.386;20.434;2023-02-28T04:48:32;25.15;;;14.77;;
63567;SDS011;49715;42.386;20.434;2023-02-28T04:51:04;23.27;;;15.00;;
63567;SDS011;49715;42.386;20.434;2023-02-28T04:53:36;24.00;;;15.32;;
63567;SDS011;49715;42.386;20.434;2023-02-28T04:56:04;26.30;;;15.07;;
63567;SDS011;49715;42.386;20.434;2023-02-28T04:58:34;25.75;;;16.10;;
63567;SDS011;49715;42.386;20.434;2023-02-28T05:01:05;24.42;;;15.57;;
63567;SDS011;49715;42.386;20.434;2023-02-28T05:03:41;27.70;;;15.35;;
63567;SDS011;49715;42.386;20.434;2023-02-28T05:06:09;25.33;;;15.27;;
63567;SDS011;49715;42.386;20.434;2023-02-28T05:08:36;24.48;;;15.52;;
63567;SDS011;49715;42.386;20.434;2023-02-28T05:11:03;28.95;;;17.38;;
63567;SDS011;49715;42.386;20.434;2023-02-28T05:13:32;25.83;;;15.95;;
63567;SDS011;49715;42.386;20.434;2023-02-28T05:15:58;34.60;;;16.03;;
63567;SDS011;49715;42.386;20.434;2023-02-28T05:18:25;24.58;;;16.58;;
63567;SDS011;49715;42.386;20.434;2023-02-28T05:20:51;27.30;;;15.90;;
63567;SDS011;49715;42.386;20.434;2023-02-28T05:23:18;23.73;;;15.30;;
63567;SDS011;49715;42.386;20.434;2023-02-28T05:25:48;26.77;;;15.20;;
63567;SDS011;49715;42.386;20.434;2023-02-28T05:28:15;26.98;;;16.50;;
63567;SDS011;49715;42.386;20.434;2023-02-28T05:30:41;24.83;;;15.27;;
63567;SDS011;49715;42.386;20.434;2023-02-28T05:33:09;23.83;;;15.80;;
63567;SDS011;49715;42.386;20.434;2023-02-28T05:35:38;25.83;;;15.60;;
63567;SDS011;49715;42.386;20.434;2023-02-28T05:38:06;23.58;;;15.45;;
63567;SDS011;49715;42.386;20.434;2023-02-28T05:40:32;26.77;;;16.27;;
63567;SDS011;49715;42.386;20.434;2023-02-28T05:42:59;26.13;;;15.40;;
63567;SDS011;49715;42.386;20.434;2023-02-28T05:45:25;26.10;;;15.90;;
63567;SDS011;49715;42.386;20.434;2023-02-28T05:47:55;24.92;;;15.63;;
63567;SDS011;49715;42.386;20.434;2023-02-28T05:50:22;27.23;;;15.27;;
63567;SDS011;49715;42.386;20.434;2023-02-28T05:52:49;26.30;;;16.73;;
63567;SDS011;49715;42.386;20.434;2023-02-28T05:55:19;25.13;;;16.50;;
63567;SDS011;49715;42.386;20.434;2023-02-28T05:57:45;25.88;;;16.38;;
63567;SDS011;49715;42.386;20.434;2023-02-28T06:00:12;25.60;;;16.17;;
63567;SDS011;49715;42.386;20.434;2023-02-28T06:02:40;28.75;;;16.27;;
63567;SDS011;49715;42.386;20.434;2023-02-28T06:05:09;28.10;;;16.15;;
63567;SDS011;49715;42.386;20.434;2023-02-28T06:07:40;27.27;;;15.90;;
63567;SDS011;49715;42.386;20.434;2023-02-28T06:10:06;26.67;;;16.57;;
63567;SDS011;49715;42.386;20.434;2023-02-28T06:12:33;23.33;;;16.10;;
63567;SDS011;49715;42.386;20.434;2023-02-28T06:15:00;26.65;;;16.58;;
63567;SDS011;49715;42.386;20.434;2023-02-28T06:17:26;25.35;;;16.90;;
63567;SDS011;49715;42.386;20.434;2023-02-28T06:19:52;28.30;;;17.30;;
63567;SDS011;49715;42.386;20.434;2023-02-28T06:22:19;28.67;;;17.07;;
63567;SDS011;49715;42.386;20.434;2023-02-28T06:24:45;29.17;;;16.20;;
63567;SDS011;49715;42.386;20.434;2023-02-28T06:27:12;29.07;;;17.83;;
63567;SDS011;49715;42.386;20.434;2023-02-28T06:29:38;28.05;;;16.40;;
63567;SDS011;49715;42.386;20.434;2023-02-28T06:32:12;31.08;;;17.08;;
63567;SDS011;49715;42.386;20.434;2023-02-28T06:34:40;30.25;;;17.13;;
63567;SDS011;49715;42.386;20.434;2023-02-28T06:37:06;33.08;;;17.02;;
63567;SDS011;49715;42.386;20.434;2023-02-28T06:39:33;25.80;;;16.10;;
63567;SDS011;49715;42.386;20.434;2023-02-28T06:42:00;31.35;;;17.23;;
63567;SDS011;49715;42.386;20.434;2023-02-28T06:44:27;29.40;;;17.58;;
63567;SDS011;49715;42.386;20.434;2023-02-28T06:47:10;27.30;;;16.60;;
63567;SDS011;49715;42.386;20.434;2023-02-28T06:49:38;30.85;;;17.90;;
63567;SDS011;49715;42.386;20.434;2023-02-28T06:52:05;29.02;;;17.85;;
63567;SDS011;49715;42.386;20.434;2023-02-28T06:54:33;29.38;;;18.85;;
63567;SDS011;49715;42.386;20.434;2023-02-28T06:56:59;32.28;;;19.45;;
63567;SDS011;49715;42.386;20.434;2023-02-28T06:59:27;29.67;;;18.33;;
63567;SDS011;49715;42.386;20.434;2023-02-28T07:01:53;37.25;;;20.98;;
63567;SDS011;49715;42.386;20.434;2023-02-28T07:04:21;31.85;;;19.38;;
63567;SDS011;49715;42.386;20.434;2023-02-28T07:06:51;30.85;;;18.70;;
63567;SDS011;49715;42.386;20.434;2023-02-28T07:09:18;31.70;;;18.05;;
63567;SDS011;49715;42.386;20.434;2023-02-28T07:11:45;30.70;;;17.33;;
63567;SDS011;49715;42.386;20.434;2023-02-28T07:14:11;29.92;;;18.48;;
63567;SDS011;49715;42.386;20.434;2023-02-28T07:16:38;33.88;;;19.48;;
63567;SDS011;49715;42.386;20.434;2023-02-28T07:19:05;31.25;;;19.50;;
63567;SDS011;49715;42.386;20.434;2023-02-28T07:21:31;40.95;;;21.63;;
63567;SDS011;49715;42.386;20.434;2023-02-28T07:23:58;42.40;;;23.58;;
63567;SDS011;49715;42.386;20.434;2023-02-28T07:26:25;36.85;;;21.40;;
63567;SDS011;49715;42.386;20.434;2023-02-28T07:28:51;39.00;;;21.70;;
63567;SDS011;49715;42.386;20.434;2023-02-28T07:31:19;38.47;;;21.23;;
63567;SDS011;49715;42.386;20.434;2023-02-28T07:33:46;38.03;;;20.92;;
63567;SDS011;49715;42.386;20.434;2023-02-28T07:36:13;39.83;;;21.75;;
63567;SDS011;49715;42.386;20.434;2023-02-28T07:38:44;40.28;;;22.15;;
63567;SDS011;49715;42.386;20.434;2023-02-28T07:41:14;38.75;;;22.58;;
63567;SDS011;49715;42.386;20.434;2023-02-28T07:43:43;42.97;;;25.08;;
63567;SDS011;49715;42.386;20.434;2023-02-28T07:46:12;46.60;;;24.55;;
63567;SDS011;49715;42.386;20.434;2023-02-28T07:48:41;36.92;;;21.20;;
63567;SDS011;49715;42.386;20.434;2023-02-28T07:51:07;36.20;;;21.98;;
63567;SDS011;49715;42.386;20.434;2023-02-28T07:53:35;44.05;;;23.00;;
63567;SDS011;49715;42.386;20.434;2023-02-28T07:56:02;47.17;;;24.48;;
63567;SDS011;49715;42.386;20.434;2023-02-28T08:00:57;44.38;;;24.15;;
63567;SDS011;49715;42.386;20.434;2023-02-28T08:03:34;42.40;;;23.50;;
63567;SDS011;49715;42.386;20.434;2023-02-28T08:06:03;46.22;;;24.05;;
63567;SDS011;49715;42.386;20.434;2023-02-28T08:08:31;48.45;;;24.15;;
63567;SDS011;49715;42.386;20.434;2023-02-28T08:10:58;52.50;;;25.30;;
63567;SDS011;49715;42.386;20.434;2023-02-28T08:13:29;43.78;;;23.90;;
63567;SDS011;49715;42.386;20.434;2023-02-28T08:15:57;43.08;;;25.58;;
63567;SDS011;49715;42.386;20.434;2023-02-28T08:18:24;47.87;;;25.00;;
63567;SDS011;49715;42.386;20.434;2023-02-28T08:20:51;50.28;;;25.27;;
63567;SDS011;49715;42.386;20.434;2023-02-28T08:23:20;52.20;;;28.02;;
63567;SDS011;49715;42.386;20.434;2023-02-28T08:25:53;50.28;;;27.10;;
63567;SDS011;49715;42.386;20.434;2023-02-28T08:28:21;54.55;;;27.25;;
63567;SDS011;49715;42.386;20.434;2023-02-28T08:30:49;59.33;;;27.88;;
63567;SDS011;49715;42.386;20.434;2023-02-28T08:33:16;55.50;;;29.13;;
63567;SDS011;49715;42.386;20.434;2023-02-28T08:35:43;54.03;;;26.65;;
63567;SDS011;49715;42.386;20.434;2023-02-28T08:38:12;55.45;;;26.30;;
63567;SDS011;49715;42.386;20.434;2023-02-28T08:40:40;54.45;;;26.50;;
63567;SDS011;49715;42.386;20.434;2023-02-28T08:43:07;58.83;;;27.65;;
63567;SDS011;49715;42.386;20.434;2023-02-28T08:45:34;57.00;;;27.38;;
63567;SDS011;49715;42.386;20.434;2023-02-28T08:48:01;57.45;;;26.15;;
63567;SDS011;49715;42.386;20.434;2023-02-28T08:50:27;51.58;;;26.20;;
63567;SDS011;49715;42.386;20.434;2023-02-28T08:52:54;54.25;;;26.13;;
63567;SDS011;49715;42.386;20.434;2023-02-28T08:55:30;46.97;;;24.20;;
63567;SDS011;49715;42.386;20.434;2023-02-28T08:57:59;49.90;;;24.77;;
63567;SDS011;49715;42.386;20.434;2023-02-28T09:00:27;63.92;;;34.70;;
63567;SDS011;49715;42.386;20.434;2023-02-28T09:02:55;66.65;;;32.17;;
63567;SDS011;49715;42.386;20.434;2023-02-28T09:05:22;55.33;;;26.60;;
63567;SDS011;49715;42.386;20.434;2023-02-28T09:07:56;51.35;;;24.23;;
63567;SDS011;49715;42.386;20.434;2023-02-28T09:10:35;52.92;;;26.85;;
63567;SDS011;49715;42.386;20.434;2023-02-28T09:13:05;49.92;;;26.58;;
63567;SDS011;49715;42.386;20.434;2023-02-28T09:15:58;51.13;;;25.35;;
63567;SDS011;49715;42.386;20.434;2023-02-28T09:18:29;49.45;;;26.60;;
63567;SDS011;49715;42.386;20.434;2023-02-28T09:20:56;47.75;;;25.38;;
63567;SDS011;49715;42.386;20.434;2023-02-28T09:23:23;47.50;;;25.90;;
63567;SDS011;49715;42.386;20.434;2023-02-28T09:25:53;43.20;;;23.77;;
63567;SDS011;49715;42.386;20.434;2023-02-28T09:28:20;46.03;;;24.73;;
63567;SDS011;49715;42.386;20.434;2023-02-28T09:30:48;49.47;;;24.83;;
63567;SDS011;49715;42.386;20.434;2023-02-28T09:33:25;52.83;;;26.80;;
63567;SDS011;49715;42.386;20.434;2023-02-28T09:35:57;46.92;;;25.85;;
63567;SDS011;49715;42.386;20.434;2023-02-28T09:38:27;52.55;;;26.90;;
63567;SDS011;49715;42.386;20.434;2023-02-28T09:41:11;53.15;;;29.30;;
63567;SDS011;49715;42.386;20.434;2023-02-28T09:43:43;51.78;;;25.90;;
63567;SDS011;49715;42.386;20.434;2023-02-28T09:46:32;45.25;;;23.10;;
63567;SDS011;49715;42.386;20.434;2023-02-28T09:49:16;53.47;;;27.02;;
63567;SDS011;49715;42.386;20.434;2023-02-28T09:54:16;43.38;;;24.80;;
63567;SDS011;49715;42.386;20.434;2023-02-28T09:59:52;51.80;;;25.02;;
63567;SDS011;49715;42.386;20.434;2023-02-28T10:05:35;45.90;;;24.48;;
63567;SDS011;49715;42.386;20.434;2023-02-28T10:08:16;49.53;;;24.08;;
63567;SDS011;49715;42.386;20.434;2023-02-28T10:11:02;32.05;;;19.25;;
63567;SDS011;49715;42.386;20.434;2023-02-28T10:17:02;23.00;;;13.77;;
63567;SDS011;49715;42.386;20.434;2023-02-28T10:24:53;31.02;;;19.45;;
63567;SDS011;49715;42.386;20.434;2023-02-28T10:27:29;37.40;;;19.63;;
63567;SDS011;49715;42.386;20.434;2023-02-28T10:30:01;25.30;;;17.02;;
63567;SDS011;49715;42.386;20.434;2023-02-28T10:37:42;29.42;;;17.35;;
63567;SDS011;49715;42.386;20.434;2023-02-28T10:43:19;35.13;;;19.95;;
63567;SDS011;49715;42.386;20.434;2023-02-28T10:45:52;33.20;;;18.15;;
63567;SDS011;49715;42.386;20.434;2023-02-28T10:49:04;34.65;;;18.00;;
63567;SDS011;49715;42.386;20.434;2023-02-28T10:51:37;31.00;;;18.65;;
63567;SDS011;49715;42.386;20.434;2023-02-28T10:54:19;31.67;;;18.25;;
63567;SDS011;49715;42.386;20.434;2023-02-28T10:59:53;30.58;;;18.75;;
63567;SDS011;49715;42.386;20.434;2023-02-28T11:03:01;33.30;;;19.95;;
63567;SDS011;49715;42.386;20.434;2023-02-28T11:05:36;33.53;;;18.25;;
63567;SDS011;49715;42.386;20.434;2023-02-28T11:08:21;26.77;;;17.88;;
63567;SDS011;49715;42.386;20.434;2023-02-28T11:10:55;27.92;;;16.60;;
63567;SDS011;49715;42.386;20.434;2023-02-28T11:13:35;23.73;;;15.95;;
63567;SDS011;49715;42.386;20.434;2023-02-28T11:16:07;24.00;;;15.40;;
63567;SDS011;49715;42.386;20.434;2023-02-28T11:21:14;32.03;;;16.17;;
63567;SDS011;49715;42.386;20.434;2023-02-28T11:23:44;29.40;;;16.55;;
63567;SDS011;49715;42.386;20.434;2023-02-28T11:26:12;26.25;;;16.75;;
63567;SDS011;49715;42.386;20.434;2023-02-28T11:28:49;28.65;;;16.65;;
63567;SDS011;49715;42.386;20.434;2023-02-28T11:31:34;30.45;;;17.50;;
63567;SDS011;49715;42.386;20.434;2023-02-28T11:34:10;36.28;;;17.92;;
63567;SDS011;49715;42.386;20.434;2023-02-28T11:36:49;26.23;;;16.38;;
63567;SDS011;49715;42.386;20.434;2023-02-28T11:39:18;22.75;;;15.52;;
63567;SDS011;49715;42.386;20.434;2023-02-28T11:44:47;29.83;;;16.90;;
63567;SDS011;49715;42.386;20.434;2023-02-28T11:47:48;23.90;;;15.63;;
63567;SDS011;49715;42.386;20.434;2023-02-28T12:15:02;22.80;;;14.55;;
63567;SDS011;49715;42.386;20.434;2023-02-28T12:29:26;19.02;;;13.88;;
63567;SDS011;49715;42.386;20.434;2023-02-28T12:31:56;21.52;;;14.98;;
63567;SDS011;49715;42.386;20.434;2023-02-28T12:34:34;21.80;;;16.33;;
63567;SDS011;49715;42.386;20.434;2023-02-28T12:40:22;24.15;;;15.80;;
63567;SDS011;49715;42.386;20.434;2023-02-28T12:42:55;18.10;;;12.80;;
63567;SDS011;49715;42.386;20.434;2023-02-28T12:45:39;17.08;;;12.25;;
63567;SDS011;49715;42.386;20.434;2023-02-28T12:48:13;21.48;;;13.13;;
63567;SDS011;49715;42.386;20.434;2023-02-28T12:50:45;23.67;;;13.65;;
63567;SDS011;49715;42.386;20.434;2023-02-28T12:53:25;24.63;;;13.75;;
63567;SDS011;49715;42.386;20.434;2023-02-28T13:02:26;18.95;;;13.25;;
63567;SDS011;49715;42.386;20.434;2023-02-28T13:11:25;24.65;;;15.27;;
63567;SDS011;49715;42.386;20.434;2023-02-28T13:14:02;28.95;;;15.65;;
63567;SDS011;49715;42.386;20.434;2023-02-28T13:19:28;28.92;;;18.02;;
63567;SDS011;49715;42.386;20.434;2023-02-28T13:21:58;23.95;;;16.85;;
63567;SDS011;49715;42.386;20.434;2023-02-28T13:29:37;20.00;;;14.15;;
63567;SDS011;49715;42.386;20.434;2023-02-28T13:35:12;21.45;;;14.60;;
63567;SDS011;49715;42.386;20.434;2023-02-28T13:37:34;25.63;;;14.23;;
63567;SDS011;49715;42.386;20.434;2023-02-28T13:42:46;23.83;;;15.38;;
63567;SDS011;49715;42.386;20.434;2023-02-28T13:45:25;21.08;;;13.55;;
63567;SDS011;49715;42.386;20.434;2023-02-28T13:48:04;19.83;;;13.70;;
63567;SDS011;49715;42.386;20.434;2023-02-28T13:50:50;21.92;;;14.18;;
63567;SDS011;49715;42.386;20.434;2023-02-28T13:53:24;20.65;;;14.10;;
63567;SDS011;49715;42.386;20.434;2023-02-28T14:05:17;26.58;;;16.65;;
63567;SDS011;49715;42.386;20.434;2023-02-28T14:07:49;28.25;;;18.63;;
63567;SDS011;49715;42.386;20.434;2023-02-28T14:10:23;35.72;;;19.02;;
63567;SDS011;49715;42.386;20.434;2023-02-28T14:15:38;28.42;;;18.42;;
63567;SDS011;49715;42.386;20.434;2023-02-28T14:18:11;35.50;;;19.75;;
63567;SDS011;49715;42.386;20.434;2023-02-28T14:20:47;28.52;;;18.08;;
63567;SDS011;49715;42.386;20.434;2023-02-28T14:23:23;31.17;;;18.33;;
63567;SDS011;49715;42.386;20.434;2023-02-28T14:26:07;36.58;;;20.35;;
63567;SDS011;49715;42.386;20.434;2023-02-28T14:31:34;31.80;;;19.63;;
63567;SDS011;49715;42.386;20.434;2023-02-28T14:36:52;32.47;;;19.55;;
63567;SDS011;49715;42.386;20.434;2023-02-28T14:39:24;27.25;;;18.52;;
63567;SDS011;49715;42.386;20.434;2023-02-28T14:41:53;33.85;;;19.60;;
63567;SDS011;49715;42.386;20.434;2023-02-28T14:44:24;34.08;;;20.08;;
63567;SDS011;49715;42.386;20.434;2023-02-28T14:46:56;35.28;;;18.33;;
63567;SDS011;49715;42.386;20.434;2023-02-28T14:49:32;28.30;;;18.05;;
63567;SDS011;49715;42.386;20.434;2023-02-28T14:52:13;27.17;;;18.40;;
63567;SDS011;49715;42.386;20.434;2023-02-28T14:54:46;33.38;;;18.95;;
63567;SDS011;49715;42.386;20.434;2023-02-28T14:57:29;34.15;;;22.60;;
63567;SDS011;49715;42.386;20.434;2023-02-28T15:00:02;40.38;;;23.42;;
63567;SDS011;49715;42.386;20.434;2023-02-28T15:02:36;36.13;;;21.52;;
63567;SDS011;49715;42.386;20.434;2023-02-28T15:07:44;41.72;;;22.63;;
63567;SDS011;49715;42.386;20.434;2023-02-28T15:10:25;28.00;;;16.90;;
63567;SDS011;49715;42.386;20.434;2023-02-28T15:15:39;37.00;;;20.65;;
63567;SDS011;49715;42.386;20.434;2023-02-28T15:18:26;44.42;;;21.92;;
63567;SDS011;49715;42.386;20.434;2023-02-28T15:20:58;41.83;;;22.58;;
63567;SDS011;49715;42.386;20.434;2023-02-28T15:23:32;39.00;;;23.27;;
63567;SDS011;49715;42.386;20.434;2023-02-28T15:26:02;43.47;;;23.13;;
63567;SDS011;49715;42.386;20.434;2023-02-28T15:28:30;43.28;;;23.40;;
63567;SDS011;49715;42.386;20.434;2023-02-28T15:30:58;33.78;;;20.92;;
63567;SDS011;49715;42.386;20.434;2023-02-28T15:33:29;34.30;;;21.02;;
63567;SDS011;49715;42.386;20.434;2023-02-28T15:36:05;39.53;;;22.15;;
63567;SDS011;49715;42.386;20.434;2023-02-28T15:38:40;39.33;;;24.42;;
63567;SDS011;49715;42.386;20.434;2023-02-28T15:41:20;40.50;;;26.05;;
63567;SDS011;49715;42.386;20.434;2023-02-28T15:49:29;49.75;;;26.48;;
63567;SDS011;49715;42.386;20.434;2023-02-28T15:52:01;49.35;;;29.90;;
63567;SDS011;49715;42.386;20.434;2023-02-28T15:54:29;32.10;;;21.73;;
63567;SDS011;49715;42.386;20.434;2023-02-28T15:57:01;73.53;;;41.83;;
63567;SDS011;49715;42.386;20.434;2023-02-28T15:59:39;51.70;;;27.85;;
63567;SDS011;49715;42.386;20.434;2023-02-28T16:02:36;42.47;;;25.63;;
63567;SDS011;49715;42.386;20.434;2023-02-28T16:07:36;47.85;;;26.70;;
63567;SDS011;49715;42.386;20.434;2023-02-28T16:10:08;44.63;;;27.00;;
63567;SDS011;49715;42.386;20.434;2023-02-28T16:12:38;49.40;;;27.15;;
63567;SDS011;49715;42.386;20.434;2023-02-28T16:15:26;42.90;;;27.45;;
63567;SDS011;49715;42.386;20.434;2023-02-28T16:17:55;39.92;;;25.60;;
63567;SDS011;49715;42.386;20.434;2023-02-28T16:20:28;45.55;;;29.75;;
63567;SDS011;49715;42.386;20.434;2023-02-28T16:22:57;48.70;;;33.05;;
63567;SDS011;49715;42.386;20.434;2023-02-28T16:25:45;54.33;;;31.38;;
63567;SDS011;49715;42.386;20.434;2023-02-28T16:28:18;45.33;;;29.33;;
63567;SDS011;49715;42.386;20.434;2023-02-28T16:30:53;48.58;;;31.88;;
63567;SDS011;49715;42.386;20.434;2023-02-28T16:33:21;49.60;;;31.17;;
63567;SDS011;49715;42.386;20.434;2023-02-28T16:35:47;32.17;;;20.80;;
63567;SDS011;49715;42.386;20.434;2023-02-28T16:38:13;45.07;;;26.73;;
63567;SDS011;49715;42.386;20.434;2023-02-28T16:40:40;38.67;;;25.52;;
63567;SDS011;49715;42.386;20.434;2023-02-28T16:43:07;50.70;;;25.00;;
63567;SDS011;49715;42.386;20.434;2023-02-28T16:45:41;41.75;;;25.48;;
63567;SDS011;49715;42.386;20.434;2023-02-28T16:48:12;42.90;;;27.63;;
63567;SDS011;49715;42.386;20.434;2023-02-28T16:50:42;40.97;;;27.40;;
63567;SDS011;49715;42.386;20.434;2023-02-28T16:53:11;42.70;;;27.45;;
63567;SDS011;49715;42.386;20.434;2023-02-28T16:55:44;48.17;;;28.70;;
63567;SDS011;49715;42.386;20.434;2023-02-28T16:58:17;48.22;;;30.20;;
63567;SDS011;49715;42.386;20.434;2023-02-28T17:00:47;48.95;;;29.23;;
63567;SDS011;49715;42.386;20.434;2023-02-28T17:03:20;40.17;;;26.38;;
63567;SDS011;49715;42.386;20.434;2023-02-28T17:05:55;47.85;;;32.08;;
63567;SDS011;49715;42.386;20.434;2023-02-28T17:08:28;48.20;;;28.63;;
63567;SDS011;49715;42.386;20.434;2023-02-28T17:11:01;46.72;;;29.25;;
63567;SDS011;49715;42.386;20.434;2023-02-28T17:13:29;52.25;;;29.30;;
63567;SDS011;49715;42.386;20.434;2023-02-28T17:16:01;48.58;;;29.17;;
63567;SDS011;49715;42.386;20.434;2023-02-28T17:18:28;39.53;;;26.45;;
63567;SDS011;49715;42.386;20.434;2023-02-28T17:21:02;40.45;;;28.25;;
63567;SDS011;49715;42.386;20.434;2023-02-28T17:23:32;47.42;;;31.17;;
63567;SDS011;49715;42.386;20.434;2023-02-28T17:26:04;52.10;;;32.60;;
63567;SDS011;49715;42.386;20.434;2023-02-28T17:28:37;55.90;;;33.70;;
63567;SDS011;49715;42.386;20.434;2023-02-28T17:31:07;48.60;;;31.80;;
63567;SDS011;49715;42.386;20.434;2023-02-28T17:36:00;54.58;;;31.63;;
63567;SDS011;49715;42.386;20.434;2023-02-28T17:40:54;53.78;;;31.08;;
63567;SDS011;49715;42.386;20.434;2023-02-28T17:43:24;56.28;;;32.85;;
63567;SDS011;49715;42.386;20.434;2023-02-28T17:45:56;49.25;;;31.48;;
63567;SDS011;49715;42.386;20.434;2023-02-28T17:48:29;51.78;;;32.55;;
63567;SDS011;49715;42.386;20.434;2023-02-28T17:51:01;57.00;;;36.00;;